Time;durP1;ratioP1;P1;durP2;ratioP2;P2;SDS_P1;SDS_P2;PMS_P1;PMS_P2;Temp;Humidity;BMP_temperature;BMP_pressure;BME280_temperature;BME280_humidity;BME280_pressure;Samples;Min_cycle;Max_cycle;Signal;HPM_P1;HPM_P2
2023/01/01 00:01:54;;;;;;;13.32;7.05;;;14.10;99.90;;;;;;4916359;29;20420;-89
2023/01/01 00:04:41;;;;;;;17.35;7.32;;;14.10;99.90;;;;;;4915797;29;20232;-88
2023/01/01 00:07:52;;;;;;;16.45;6.43;;;14.10;99.90;;;;;;4915350;29;20136;-88
2023/01/01 00:14:05;;;;;;;16.63;7.65;;;13.70;99.90;;;;;;4878192;29;20116;-89
2023/01/01 00:16:50;;;;;;;23.73;8.13;;;14.10;99.90;;;;;;4896913;29;20048;-90
2023/01/01 00:19:40;;;;;;;571.17;489.30;;;14.10;99.90;;;;;;4913262;29;20052;-89
2023/01/01 00:22:21;;;;;;;373.52;350.40;;;13.80;99.90;;;;;;4917888;29;20067;-89
2023/01/01 00:25:08;;;;;;;356.95;319.13;;;14.00;99.90;;;;;;4923424;29;20503;-87
2023/01/01 00:28:02;;;;;;;575.35;519.33;;;14.10;99.90;;;;;;4949204;28;20059;-90
2023/01/01 00:31:03;;;;;;;629.85;396.90;;;14.10;99.90;;;;;;4991807;28;20109;-87
2023/01/01 00:33:55;;;;;;;326.75;289.40;;;14.30;99.90;;;;;;4975500;28;20049;-88
2023/01/01 00:36:51;;;;;;;536.15;482.20;;;14.20;99.90;;;;;;4976314;28;20088;-89
2023/01/01 00:39:55;;;;;;;689.97;518.97;;;14.10;99.90;;;;;;4979047;28;20038;-88
2023/01/01 00:42:40;;;;;;;471.67;441.70;;;14.00;99.90;;;;;;4991461;28;20054;-88
2023/01/01 00:45:15;;;;;;;105.72;98.25;;;14.00;99.90;;;;;;4994585;28;20077;-87
2023/01/01 00:47:57;;;;;;;506.58;458.85;;;14.00;99.90;;;;;;5035556;28;20065;-89
2023/01/01 00:50:30;;;;;;;340.08;301.00;;;13.90;99.90;;;;;;5093488;28;20514;-88
2023/01/01 00:53:38;;;;;;;;;;;;;;;;;;;;;
2023/01/01 00:56:56;;;;;;;;;;;;;;;;;;;;;
2023/01/01 01:00:08;;;;;;;;;;;;;;;;;;;;;
2023/01/01 01:03:30;;;;;;;742.78;436.83;;;13.80;99.90;;;;;;5068594;28;20063;-91
2023/01/01 01:06:21;;;;;;;388.77;310.10;;;13.80;99.90;;;;;;5044571;28;20185;-88
2023/01/01 01:09:32;;;;;;;482.80;438.58;;;13.80;99.90;;;;;;5096134;28;20074;-87
2023/01/01 01:12:38;;;;;;;655.65;519.67;;;13.60;99.90;;;;;;5095210;28;20044;-88
2023/01/01 01:15:56;;;;;;;;;;;;;;;;;;;;;
2023/01/01 01:19:13;;;;;;;;;;;;;;;;;;;;;
2023/01/01 01:22:44;;;;;;;;;;;;;;;;;;;;;
2023/01/01 01:26:00;;;;;;;;;;;;;;;;;;;;;
2023/01/01 01:29:32;;;;;;;881.60;519.80;;;13.40;99.90;;;;;;5052497;28;20059;-86
2023/01/01 01:32:46;;;;;;;577.30;387.80;;;13.30;99.90;;;;;;5033251;28;20065;-88
2023/01/01 01:36:12;;;;;;;678.75;487.67;;;13.40;99.90;;;;;;5034175;28;20049;-87
2023/01/01 01:39:30;;;;;;;;;;;;;;;;;;;;;
2023/01/01 01:42:44;;;;;;;465.40;359.15;;;13.40;99.90;;;;;;4943275;28;20113;-87
2023/01/01 01:46:28;;;;;;;;;;;;;;;;;;;;;
2023/01/01 01:49:16;;;;;;;708.83;497.65;;;13.20;99.90;;;;;;5017572;28;20064;-87
2023/01/01 01:52:38;;;;;;;;;;;;;;;;;;;;;
2023/01/01 01:59:26;;;;;;;833.25;525.78;;;12.70;99.90;;;;;;4974191;28;20105;-88
2023/01/01 02:02:48;;;;;;;633.92;389.35;;;12.60;99.90;;;;;;4974210;28;20098;-87
2023/01/01 02:05:54;;;;;;;905.05;506.55;;;12.60;99.90;;;;;;4993617;28;20491;-88
2023/01/01 02:08:29;;;;;;;743.20;441.13;;;12.60;99.90;;;;;;4974094;28;20094;-88
2023/01/01 02:11:31;;;;;;;542.00;365.20;;;12.40;99.90;;;;;;4958648;28;20054;-88
2023/01/01 02:15:02;;;;;;;494.23;440.10;;;12.30;99.90;;;;;;4974355;28;20046;-88
2023/01/01 02:18:39;;;;;;;751.50;424.90;;;12.40;99.90;;;;;;4975001;28;20055;-88
2023/01/01 02:22:10;;;;;;;814.53;482.63;;;12.60;99.90;;;;;;4974124;28;20082;-88
2023/01/01 02:25:35;;;;;;;762.25;448.08;;;12.30;99.90;;;;;;4974149;28;20494;-88
2023/01/01 02:29:12;;;;;;;;;;;;;;;;;;;;;
2023/01/01 02:33:06;;;;;;;735.03;457.10;;;12.30;99.90;;;;;;4972278;28;20065;-88
2023/01/01 02:36:23;;;;;;;852.88;466.05;;;12.30;99.90;;;;;;4961636;28;20057;-88
2023/01/01 02:39:46;;;;;;;;;;;;;;;;;;;;;
2023/01/01 02:42:58;;;;;;;1010.03;504.53;;;12.30;99.90;;;;;;4979258;28;20427;-87
2023/01/01 02:46:12;;;;;;;1037.87;523.43;;;12.30;99.90;;;;;;4977223;28;20100;-88
2023/01/01 02:49:38;;;;;;;589.38;368.90;;;12.30;99.90;;;;;;4993073;28;20058;-87
2023/01/01 02:53:03;;;;;;;;;;;;;;;;;;;;;
2023/01/01 02:56:28;;;;;;;;;;;;;;;;;;;;;
2023/01/01 03:00:28;;;;;;;;;;;;;;;;;;;;;
2023/01/01 03:03:52;;;;;;;577.45;445.45;;;12.20;99.90;;;;;;4878538;29;20063;-87
2023/01/01 03:06:59;;;;;;;857.33;459.52;;;12.10;99.90;;;;;;4877911;29;20057;-87
2023/01/01 03:10:14;;;;;;;1052.47;519.53;;;11.60;99.90;;;;;;4841053;29;20127;-88
2023/01/01 03:13:31;;;;;;;1093.87;526.50;;;12.00;99.90;;;;;;4841031;29;20460;-88
2023/01/01 03:16:46;;;;;;;1141.13;525.50;;;11.90;99.90;;;;;;4876799;29;20049;-88
2023/01/01 03:20:03;;;;;;;;;;;;;;;;;;;;;
2023/01/01 03:23:40;;;;;;;;;;;;;;;;;;;;;
2023/01/01 03:26:38;;;;;;;;;;;11.80;99.90;;;;;;4885098;29;20060;-88
2023/01/01 03:29:49;;;;;;;1079.97;503.83;;;11.80;99.90;;;;;;4896216;29;19927;-88
2023/01/01 03:33:12;;;;;;;1151.53;539.33;;;11.80;99.90;;;;;;4912056;29;20052;-87
2023/01/01 03:36:52;;;;;;;;;;;;;;;;;;;;;
2023/01/01 03:39:43;;;;;;;;;;;12.00;99.90;;;;;;4985405;28;20106;-87
2023/01/01 03:43:06;;;;;;;;;;;;;;;;;;;;;
2023/01/01 03:46:30;;;;;;;816.93;361.03;;;11.80;99.90;;;;;;5031111;28;20068;-87
2023/01/01 03:53:40;;;;;;;1117.90;488.43;;;12.10;99.90;;;;;;4921097;29;20051;-89
2023/01/01 03:56:57;;;;;;;;;;;;;;;;;;;;;
2023/01/01 04:00:26;;;;;;;1122.43;485.03;;;11.40;99.90;;;;;;4934221;29;20059;-89
2023/01/01 04:04:06;;;;;;;;;;;;;;;;;;;;;
2023/01/01 04:07:18;;;;;;;1165.03;535.00;;;11.60;99.90;;;;;;4953537;29;20047;-88
2023/01/01 04:14:32;;;;;;;;;;;;;;;;;;;;;
2023/01/01 04:17:46;;;;;;;1146.83;531.37;;;11.40;99.90;;;;;;4933995;29;20066;-87
2023/01/01 04:21:07;;;;;;;;;;;;;;;;;;;;;
2023/01/01 04:23:57;;;;;;;1140.10;547.90;;;11.10;99.90;;;;;;4933520;29;20110;-88
2023/01/01 04:34:45;;;;;;;1193.33;529.20;;;11.60;99.90;;;;;;4933781;29;20139;-88
2023/01/01 04:38:08;;;;;;;;;;;;;;;;;;;;;
2023/01/01 04:41:34;;;;;;;;;;;;;;;;;;;;;
2023/01/01 04:44:57;;;;;;;1208.47;536.10;;;11.30;99.90;;;;;;4895646;29;20434;-89
2023/01/01 04:48:24;;;;;;;1173.63;499.53;;;11.60;99.90;;;;;;4905685;29;20161;-89
2023/01/01 04:51:46;;;;;;;1172.83;495.77;;;11.60;99.90;;;;;;4950978;29;20110;-87
2023/01/01 04:55:19;;;;;;;;;;;;;;;;;;;;;
2023/01/01 04:59:04;;;;;;;;;;;;;;;;;;;;;
2023/01/01 05:02:32;;;;;;;;;;;;;;;;;;;;;
2023/01/01 05:05:52;;;;;;;1155.73;495.37;;;11.40;99.90;;;;;;4914861;28;20066;-87
2023/01/01 05:09:02;;;;;;;1171.97;501.63;;;11.70;99.90;;;;;;5043344;28;20132;-87
2023/01/01 05:12:08;;;;;;;1183.73;528.93;;;11.50;99.90;;;;;;5021280;28;20055;-87
2023/01/01 05:15:14;;;;;;;1069.90;503.13;;;11.60;99.90;;;;;;5016252;28;20052;-88
2023/01/01 05:18:24;;;;;;;9.65;1.73;;;11.60;99.90;;;;;;4985413;28;20092;-89
2023/01/01 05:22:01;;;;;;;;;;;;;;;;;;;;;
2023/01/01 05:25:29;;;;;;;9.75;2.75;;;11.60;99.90;;;;;;5034220;28;20046;-88
2023/01/01 05:29:02;;;;;;;999.93;478.23;;;11.60;99.90;;;;;;5038099;28;20454;-88
2023/01/01 05:32:42;;;;;;;1051.73;509.27;;;11.60;99.90;;;;;;5046859;28;20394;-87
2023/01/01 05:36:34;;;;;;;;;;;;;;;;;;;;;
2023/01/01 05:39:51;;;;;;;1040.50;474.83;;;11.50;99.90;;;;;;5017062;28;20053;-90
2023/01/01 05:43:31;;;;;;;;;;;;;;;;;;;;;
2023/01/01 05:46:51;;;;;;;1161.67;506.27;;;11.60;99.90;;;;;;5033579;28;20094;-89
2023/01/01 05:49:53;;;;;;;1220.43;528.30;;;11.60;99.90;;;;;;5032754;28;20045;-89
2023/01/01 05:53:12;;;;;;;;;;;;;;;;;;;;;
2023/01/01 05:56:29;;;;;;;1225.57;528.13;;;11.60;99.90;;;;;;5015674;28;20136;-90
2023/01/01 06:03:47;;;;;;;1195.60;518.70;;;11.60;99.90;;;;;;4842382;29;20182;-91
2023/01/01 06:07:10;;;;;;;;;;;;;;;;;;;;;
2023/01/01 06:10:14;;;;;;;1191.93;513.10;;;12.00;99.90;;;;;;4826363;29;20064;-89
2023/01/01 06:17:28;;;;;;;;;;;;;;;;;;;;;
2023/01/01 06:20:46;;;;;;;768.93;441.10;;;11.90;99.90;;;;;;4936211;29;20083;-89
2023/01/01 06:24:12;;;;;;;1093.50;482.43;;;11.60;99.90;;;;;;4936051;28;20290;-88
2023/01/01 06:27:36;;;;;;;;;;;;;;;;;;;;;
2023/01/01 06:31:20;;;;;;;;;;;;;;;;;;;;;
2023/01/01 06:34:33;;;;;;;;;;;;;;;;;;;;;
2023/01/01 06:38:01;;;;;;;1168.10;496.43;;;11.40;99.90;;;;;;4959946;28;20434;-89
2023/01/01 06:41:14;;;;;;;1169.93;518.90;;;11.30;99.90;;;;;;5062964;28;20055;-88
2023/01/01 06:44:36;;;;;;;1180.10;528.67;;;11.30;99.90;;;;;;5117276;27;20104;-88
2023/01/01 06:47:58;;;;;;;1160.90;491.30;;;11.30;99.90;;;;;;5114971;28;20047;-90
2023/01/01 06:55:05;;;;;;;1193.37;530.23;;;11.30;99.90;;;;;;4976690;28;20061;-89
2023/01/01 06:58:08;;;;;;;1167.97;495.47;;;11.40;99.90;;;;;;4975893;28;20560;-88
2023/01/01 07:02:01;;;;;;;;;;;;;;;;;;;;;
2023/01/01 07:05:30;;;;;;;;;;;;;;;;;;;;;
2023/01/01 07:08:59;;;;;;;;;;;;;;;;;;;;;
2023/01/01 07:12:12;;;;;;;1203.17;527.10;;;11.20;99.90;;;;;;4934961;29;20047;-87
2023/01/01 07:15:36;;;;;;;;;;;;;;;;;;;;;
2023/01/01 07:18:56;;;;;;;1181.53;496.17;;;11.10;99.90;;;;;;4902848;29;20052;-89
2023/01/01 07:22:24;;;;;;;;;;;;;;;;;;;;;
2023/01/01 07:25:58;;;;;;;;;;;;;;;;;;;;;
2023/01/01 07:34:12;;;;;;;;;;;;;;;;;;;;;
2023/01/01 07:37:05;;;;;;;1208.47;534.27;;;11.00;99.90;;;;;;4953818;29;20050;-89
2023/01/01 07:40:11;;;;;;;1206.93;529.17;;;11.00;99.90;;;;;;4985944;28;20145;-88
2023/01/01 07:43:12;;;;;;;1212.77;536.37;;;11.00;99.90;;;;;;5085280;28;20124;-89
2023/01/01 07:46:56;;;;;;;;;;;;;;;;;;;;;
2023/01/01 07:50:27;;;;;;;1176.73;488.00;;;10.80;99.90;;;;;;5031996;28;20049;-89
2023/01/01 07:53:21;;;;;;;1174.13;487.03;;;10.10;99.90;;;;;;4999457;28;20514;-89
2023/01/01 07:56:21;;;;;;;1173.23;486.17;;;11.20;99.90;;;;;;5015148;28;20045;-89
2023/01/01 07:59:08;;;;;;;1202.67;534.23;;;10.80;99.90;;;;;;5016422;28;20218;-88
2023/01/01 08:05:08;;;;;;;1161.05;483.30;;;11.40;99.90;;;;;;4991620;28;20053;-88
2023/01/01 08:07:54;;;;;;;1169.40;488.87;;;10.70;99.90;;;;;;4953725;29;20198;-88
2023/01/01 08:14:16;;;;;;;1182.83;521.50;;;9.90;99.90;;;;;;4956594;28;20057;-90
2023/01/01 08:17:04;;;;;;;1203.27;535.37;;;10.70;99.90;;;;;;4902413;29;20056;-89
2023/01/01 08:19:52;;;;;;;1170.10;482.87;;;10.70;99.90;;;;;;4934812;29;20496;-89
2023/01/01 08:22:41;;;;;;;1159.70;476.60;;;10.80;99.90;;;;;;4953363;28;20118;-88
2023/01/01 08:25:36;;;;;;;1154.43;484.42;;;10.70;99.90;;;;;;4941774;28;20445;-92
2023/01/01 08:28:43;;;;;;;;;;;;;;;;;;;;;
2023/01/01 08:31:39;;;;;;;1187.40;531.67;;;10.70;99.90;;;;;;4951894;28;20055;-89
2023/01/01 08:34:46;;;;;;;1163.17;478.30;;;10.70;99.90;;;;;;4962021;28;20050;-89
2023/01/01 08:37:42;;;;;;;1217.33;534.10;;;10.70;99.90;;;;;;4959417;28;20058;-89
2023/01/01 08:40:31;;;;;;;1191.37;525.87;;;10.70;99.90;;;;;;4956433;28;20055;-89
2023/01/01 08:43:34;;;;;;;1210.53;533.20;;;10.70;99.90;;;;;;4978792;28;20472;-88
2023/01/01 08:46:26;;;;;;;1172.37;530.93;;;10.70;99.90;;;;;;4994136;28;20057;-90
2023/01/01 08:49:31;;;;;;;1178.77;527.73;;;10.70;99.90;;;;;;5002325;28;20499;-89
2023/01/01 08:52:30;;;;;;;1191.07;527.03;;;10.70;99.90;;;;;;5006260;28;20078;-89
2023/01/01 08:55:15;;;;;;;1185.40;533.30;;;10.70;99.90;;;;;;5080379;28;20041;-89
2023/01/01 08:58:07;;;;;;;1166.27;490.70;;;10.70;99.90;;;;;;5074198;28;20076;-89
2023/01/01 09:00:58;;;;;;;1158.13;486.00;;;10.70;99.90;;;;;;5074115;28;20167;-89
2023/01/01 09:04:15;;;;;;;;;;;;;;;;;;;;;
2023/01/01 09:06:55;;;;;;;1166.43;483.23;;;10.70;99.90;;;;;;5008741;28;20061;-89
2023/01/01 09:09:49;;;;;;;1186.60;532.97;;;10.80;99.90;;;;;;5074473;28;20077;-88
2023/01/01 09:12:45;;;;;;;1159.93;477.70;;;10.80;99.90;;;;;;5078173;28;20416;-89
2023/01/01 09:15:26;;;;;;;1171.33;498.13;;;10.70;99.90;;;;;;5077993;28;20401;-89
2023/01/01 09:18:46;;;;;;;1182.43;530.33;;;10.70;99.90;;;;;;5101211;28;20463;-89
2023/01/01 09:21:46;;;;;;;1154.00;485.20;;;10.70;99.90;;;;;;5080659;28;20052;-89
2023/01/01 09:24:46;;;;;;;1145.80;486.00;;;10.80;99.90;;;;;;5116082;28;20039;-88
2023/01/01 09:27:48;;;;;;;1179.97;535.75;;;10.80;99.90;;;;;;5117104;28;20055;-89
2023/01/01 09:30:46;;;;;;;1173.63;529.25;;;10.70;99.90;;;;;;5091676;28;20039;-87
2023/01/01 09:33:46;;;;;;;1183.13;526.60;;;10.80;99.90;;;;;;5054151;28;20049;-88
2023/01/01 09:36:36;;;;;;;;;;;;;;;;;;;;;
2023/01/01 09:39:38;;;;;;;1177.93;528.57;;;10.90;99.90;;;;;;5053413;28;20100;-87
2023/01/01 09:42:48;;;;;;;1166.38;501.33;;;11.10;99.90;;;;;;5053429;28;20033;-88
2023/01/01 09:46:14;;;;;;;1179.97;531.63;;;10.90;99.90;;;;;;5011111;28;20462;-89
2023/01/01 09:49:38;;;;;;;1178.60;528.43;;;10.80;99.90;;;;;;4978208;28;20094;-88
2023/01/01 09:52:41;;;;;;;;;;;;;;;;;;;;;
2023/01/01 09:55:46;;;;;;;1156.63;483.10;;;11.40;99.90;;;;;;4871444;29;20460;-86
2023/01/01 09:59:00;;;;;;;;;;;;;;;;;;;;;
2023/01/01 10:02:16;;;;;;;1186.87;531.67;;;10.90;99.90;;;;;;4861599;29;20522;-88
2023/01/01 10:05:40;;;;;;;1188.53;534.95;;;11.00;99.90;;;;;;4842860;29;20089;-88
2023/01/01 10:08:52;;;;;;;1159.97;484.97;;;11.00;99.90;;;;;;4843011;29;20090;-87
2023/01/01 10:11:52;;;;;;;1181.73;528.33;;;11.10;99.90;;;;;;4856724;29;20056;-88
2023/01/01 10:14:52;;;;;;;1189.63;526.63;;;11.10;99.90;;;;;;4883102;29;20064;-90
2023/01/01 10:18:01;;;;;;;1160.47;480.10;;;11.10;99.90;;;;;;4896195;29;20084;-90
2023/01/01 10:21:10;;;;;;;1169.97;488.17;;;11.20;99.90;;;;;;4898090;29;20049;-89
2023/01/01 10:24:32;;;;;;;1161.87;489.23;;;11.30;99.90;;;;;;4924668;28;20066;-88
2023/01/01 10:27:32;;;;;;;1190.00;532.50;;;11.30;99.90;;;;;;5028149;28;20068;-88
2023/01/01 10:33:58;;;;;;;1214.37;501.37;;;11.40;99.90;;;;;;5053331;28;20512;-88
2023/01/01 10:36:49;;;;;;;1227.53;518.07;;;11.40;99.90;;;;;;5034736;28;20044;-89
2023/01/01 10:39:50;;;;;;;1195.47;500.27;;;11.00;99.90;;;;;;5080131;28;20100;-88
2023/01/01 10:42:34;;;;;;;1183.20;493.67;;;11.40;99.90;;;;;;5093451;28;20531;-87
2023/01/01 10:45:30;;;;;;;1197.20;533.60;;;11.30;99.90;;;;;;5095022;28;20101;-85
2023/01/01 10:48:37;;;;;;;;;;;;;;;;;;;;;
2023/01/01 10:51:36;;;;;;;1221.20;532.37;;;11.30;99.90;;;;;;5117629;27;20574;-86
2023/01/01 10:54:42;;;;;;;1184.20;497.48;;;11.20;99.90;;;;;;5113891;28;20387;-88
2023/01/01 10:57:38;;;;;;;1180.93;487.53;;;11.50;99.90;;;;;;5092324;28;20039;-87
2023/01/01 11:00:29;;;;;;;1199.57;531.97;;;11.20;99.90;;;;;;5118848;27;20031;-86
2023/01/01 11:03:25;;;;;;;1180.83;492.90;;;11.20;99.90;;;;;;5121226;27;20043;-88
2023/01/01 11:06:06;;;;;;;1163.93;486.30;;;11.30;99.90;;;;;;5096879;28;20126;-89
2023/01/01 11:08:39;;;;;;;1194.33;534.80;;;11.30;99.90;;;;;;5113950;28;20100;-88
2023/01/01 11:11:07;;;;;;;1196.47;536.50;;;11.30;99.90;;;;;;5093505;28;20051;-88
2023/01/01 11:13:33;;;;;;;1192.87;532.20;;;11.30;99.90;;;;;;5093680;27;20044;-87
2023/01/01 11:16:00;;;;;;;1196.63;533.97;;;11.40;99.90;;;;;;5100544;28;20131;-88
2023/01/01 11:18:34;;;;;;;1170.17;484.77;;;11.40;99.90;;;;;;5094167;28;20051;-87
2023/01/01 11:21:02;;;;;;;1199.50;532.43;;;11.50;99.90;;;;;;5095757;28;20035;-89
2023/01/01 11:23:36;;;;;;;1167.50;495.50;;;11.50;99.90;;;;;;5114446;28;20463;-87
2023/01/01 11:26:25;;;;;;;1190.83;532.50;;;11.50;99.90;;;;;;5098656;28;20039;-87
2023/01/01 11:29:01;;;;;;;1194.60;535.33;;;11.50;99.90;;;;;;5087047;28;20125;-87
2023/01/01 11:31:38;;;;;;;1166.13;491.73;;;11.50;99.90;;;;;;5114900;28;20055;-89
2023/01/01 11:34:27;;;;;;;1186.93;538.53;;;11.50;99.90;;;;;;5098617;27;20103;-88
2023/01/01 11:37:25;;;;;;;1191.60;533.20;;;11.30;99.90;;;;;;5117146;27;20474;-87
2023/01/01 11:40:00;;;;;;;1191.78;535.17;;;11.60;99.90;;;;;;5096278;28;20081;-88
2023/01/01 11:42:33;;;;;;;1193.80;534.00;;;12.10;99.90;;;;;;5093164;28;20476;-87
2023/01/01 11:45:14;;;;;;;1184.77;532.10;;;11.50;99.90;;;;;;5105246;28;20036;-88
2023/01/01 11:47:50;;;;;;;1158.23;489.00;;;11.50;99.90;;;;;;5113853;28;20051;-86
2023/01/01 11:50:24;;;;;;;1168.38;493.55;;;11.50;99.90;;;;;;5113723;28;20078;-87
2023/01/01 11:53:16;;;;;;;1157.27;487.50;;;11.50;99.90;;;;;;5111973;28;20058;-88
2023/01/01 11:56:13;;;;;;;1185.37;528.03;;;11.50;99.90;;;;;;5094370;28;20104;-86
2023/01/01 11:59:24;;;;;;;1164.83;487.63;;;11.50;99.90;;;;;;5093434;28;20377;-88
2023/01/01 12:02:04;;;;;;;1186.03;531.53;;;11.50;99.90;;;;;;5108886;28;20112;-89
2023/01/01 12:05:12;;;;;;;;;;;;;;;;;;;;;
2023/01/01 12:07:55;;;;;;;1180.50;528.87;;;11.60;99.90;;;;;;5097236;28;20488;-86
2023/01/01 12:10:45;;;;;;;1188.03;531.90;;;11.60;99.90;;;;;;5114918;28;20039;-89
2023/01/01 12:14:00;;;;;;;;;;;;;;;;;;;;;
2023/01/01 12:17:04;;;;;;;1163.03;490.30;;;11.50;99.90;;;;;;5081417;28;20886;-88
2023/01/01 12:19:40;;;;;;;1190.77;533.43;;;11.70;99.90;;;;;;5079263;28;20390;-87
2023/01/01 12:22:18;;;;;;;1194.07;537.50;;;11.70;99.90;;;;;;5088445;28;20069;-89
2023/01/01 12:24:53;;;;;;;1173.00;529.10;;;11.60;99.90;;;;;;5093980;28;20043;-89
2023/01/01 12:27:47;;;;;;;1166.93;494.17;;;11.60;99.90;;;;;;5113028;28;20036;-88
2023/01/01 12:30:49;;;;;;;1198.40;530.87;;;11.60;99.90;;;;;;5112127;28;20054;-85
2023/01/01 12:33:37;;;;;;;1194.93;527.87;;;12.30;99.90;;;;;;5108160;28;20385;-89
2023/01/01 12:36:45;;;;;;;1196.13;538.83;;;11.60;99.90;;;;;;5096585;28;20089;-86
2023/01/01 12:39:49;;;;;;;1190.30;535.07;;;11.80;99.90;;;;;;5108046;28;20507;-91
2023/01/01 12:42:39;;;;;;;1165.73;492.83;;;11.70;99.90;;;;;;5093505;28;20125;-87
2023/01/01 12:46:02;;;;;;;1165.60;493.25;;;11.70;99.90;;;;;;5107721;28;20039;-90
2023/01/01 12:49:16;;;;;;;;;;;;;;;;;;;;;
2023/01/01 12:52:20;;;;;;;1161.00;491.03;;;11.80;99.90;;;;;;5107446;28;20302;-87
2023/01/01 12:55:13;;;;;;;1188.33;532.30;;;11.80;99.90;;;;;;5096103;28;20035;-88
2023/01/01 12:57:56;;;;;;;1193.33;530.70;;;11.80;99.90;;;;;;5103634;28;20035;-88
2023/01/01 13:00:23;;;;;;;1188.00;535.10;;;11.70;99.90;;;;;;5109775;28;20456;-86
2023/01/01 13:03:07;;;;;;;1162.20;491.67;;;11.70;99.90;;;;;;5121993;28;20040;-91
2023/01/01 13:05:49;;;;;;;1189.73;534.97;;;11.80;99.90;;;;;;5092905;28;20094;-89
2023/01/01 13:08:38;;;;;;;1158.17;503.43;;;11.70;99.90;;;;;;5094016;28;20052;-89
2023/01/01 13:11:29;;;;;;;;;;;;;;;;;;;;;
2023/01/01 13:14:29;;;;;;;1185.60;536.60;;;12.20;99.90;;;;;;5114922;28;20055;-91
2023/01/01 13:17:31;;;;;;;1155.90;495.17;;;11.80;99.90;;;;;;5108147;28;20097;-90
2023/01/01 13:20:43;;;;;;;1186.97;530.90;;;11.80;99.90;;;;;;5092872;28;20098;-86
2023/01/01 13:23:44;;;;;;;1169.23;496.87;;;11.80;99.90;;;;;;5094025;28;20051;-88
2023/01/01 13:26:31;;;;;;;1164.37;501.70;;;11.80;99.90;;;;;;5094632;28;20040;-92
2023/01/01 13:29:17;;;;;;;1169.17;500.37;;;11.80;99.90;;;;;;5111391;28;20482;-88
2023/01/01 13:32:05;;;;;;;1190.40;533.30;;;11.80;99.90;;;;;;5116329;28;20050;-86
2023/01/01 13:35:04;;;;;;;1198.23;537.97;;;11.70;99.90;;;;;;5120828;27;20051;-91
2023/01/01 13:38:02;;;;;;;1198.40;536.03;;;11.70;99.90;;;;;;5137029;27;20043;-88
2023/01/01 13:40:59;;;;;;;;;;;;;;;;;;;;;
2023/01/01 13:43:42;;;;;;;1199.67;535.60;;;11.70;99.90;;;;;;5112943;27;20059;-91
2023/01/01 13:46:12;;;;;;;;;;;11.70;99.90;;;;;;5110302;27;20043;-91
2023/01/01 13:48:52;;;;;;;1166.90;494.80;;;11.70;99.90;;;;;;5125340;27;20260;-88
2023/01/01 13:52:06;;;;;;;;;;;;;;;;;;;;;
2023/01/01 13:55:31;;;;;;;1202.20;536.93;;;11.60;99.90;;;;;;5120676;27;20048;-92
2023/01/01 13:58:29;;;;;;;1195.60;538.80;;;11.60;99.90;;;;;;5104870;27;20046;-86
2023/01/01 14:01:20;;;;;;;1172.27;497.00;;;11.70;99.90;;;;;;5021730;28;20070;-91
2023/01/01 14:03:53;;;;;;;1172.73;496.53;;;11.60;99.90;;;;;;5022042;28;20113;-86
2023/01/01 14:06:43;;;;;;;1197.87;532.63;;;11.50;99.90;;;;;;5114213;22;20088;-87
2023/01/01 14:09:25;;;;;;;1197.93;538.17;;;11.40;99.90;;;;;;5147633;22;20071;-95
2023/01/01 14:12:09;;;;;;;1199.20;534.87;;;11.50;99.90;;;;;;5085616;28;20056;-88
2023/01/01 14:15:13;;;;;;;1174.03;496.87;;;11.50;99.90;;;;;;5093452;28;20059;-89
2023/01/01 14:18:02;;;;;;;1170.97;496.37;;;11.50;99.90;;;;;;5081620;28;20055;-90
2023/01/01 14:20:56;;;;;;;1196.50;536.97;;;11.40;99.90;;;;;;5080777;28;20048;-88
2023/01/01 14:24:07;;;;;;;1197.60;534.03;;;11.20;99.90;;;;;;5099966;28;20441;-88
2023/01/01 14:27:10;;;;;;;1197.43;537.27;;;11.40;99.90;;;;;;4975146;28;20057;-93
2023/01/01 14:29:37;;;;;;;1171.10;502.93;;;11.40;99.90;;;;;;4978179;28;20054;-89
2023/01/01 14:32:24;;;;;;;1191.93;532.80;;;11.90;99.90;;;;;;4989248;28;20531;-90
2023/01/01 14:35:14;;;;;;;1167.13;496.67;;;11.20;99.90;;;;;;4968088;28;20554;-91
2023/01/01 14:37:52;;;;;;;1199.43;534.10;;;11.30;99.90;;;;;;4975798;28;20054;-90
2023/01/01 14:40:52;;;;;;;1161.23;492.10;;;11.10;99.90;;;;;;5014647;28;20138;-88
2023/01/01 14:44:08;;;;;;;1161.93;499.43;;;11.20;99.90;;;;;;5002243;28;20051;-90
2023/01/01 14:47:16;;;;;;;1160.23;487.70;;;11.40;99.90;;;;;;4962026;28;20089;-92
2023/01/01 14:50:16;;;;;;;1158.33;486.77;;;11.20;99.90;;;;;;5092128;22;20553;-90
2023/01/01 14:53:17;;;;;;;1164.10;494.77;;;11.10;99.90;;;;;;5055555;28;20099;-90
2023/01/01 14:56:46;;;;;;;1161.27;489.50;;;11.10;99.90;;;;;;5040180;28;20063;-89
2023/01/01 15:06:56;;;;;;;1156.30;489.67;;;11.00;99.90;;;;;;5070099;28;20032;-90
2023/01/01 15:09:25;;;;;;;1160.57;492.43;;;11.00;99.90;;;;;;5069640;28;20043;-92
2023/01/01 15:11:57;;;;;;;1165.87;491.07;;;10.90;99.90;;;;;;5112560;28;20063;-89
2023/01/01 15:14:36;;;;;;;1188.70;530.77;;;10.80;99.90;;;;;;5097756;28;20058;-90
2023/01/01 15:17:09;;;;;;;1192.27;532.00;;;10.90;99.90;;;;;;5060502;28;20119;-88
2023/01/01 15:19:43;;;;;;;1169.07;493.33;;;10.70;99.90;;;;;;5104768;28;20388;-89
2023/01/01 15:22:40;;;;;;;1194.03;532.33;;;10.80;99.90;;;;;;5097697;28;20051;-88
2023/01/01 15:25:14;;;;;;;1187.63;528.97;;;10.80;99.90;;;;;;5099000;28;20081;-89
2023/01/01 15:27:43;;;;;;;1195.97;532.73;;;10.80;99.90;;;;;;5074169;28;20071;-87
2023/01/01 15:30:32;;;;;;;1161.10;486.53;;;10.80;99.90;;;;;;5092531;28;20036;-86
2023/01/01 15:33:16;;;;;;;1189.90;531.43;;;10.70;99.90;;;;;;5076664;28;20094;-89
2023/01/01 15:35:51;;;;;;;1161.07;485.17;;;10.70;99.90;;;;;;5094670;28;20841;-87
2023/01/01 15:38:37;;;;;;;1158.87;489.73;;;10.70;99.90;;;;;;5058205;28;20443;-87
2023/01/01 15:41:38;;;;;;;1159.75;482.95;;;10.70;99.90;;;;;;5072828;28;20080;-87
2023/01/01 15:44:24;;;;;;;1161.38;487.77;;;10.60;99.90;;;;;;5062875;28;20040;-85
2023/01/01 15:47:04;;;;;;;1164.40;495.93;;;10.60;99.90;;;;;;5075402;28;20422;-87
2023/01/01 15:49:37;;;;;;;1193.93;530.87;;;10.50;99.90;;;;;;5087980;28;20084;-87
2023/01/01 15:52:30;;;;;;;1164.13;496.53;;;10.50;99.90;;;;;;5055327;28;20128;-88
2023/01/01 15:55:06;;;;;;;1157.33;480.57;;;10.70;99.90;;;;;;5048303;28;20498;-90
2023/01/01 15:57:39;;;;;;;1183.70;529.27;;;10.40;99.90;;;;;;5051452;28;20040;-87
2023/01/01 16:00:42;;;;;;;1178.60;526.73;;;10.40;99.90;;;;;;5055531;28;20037;-89
2023/01/01 16:03:32;;;;;;;1216.57;562.37;;;10.40;99.90;;;;;;5100829;22;20027;-89
2023/01/01 16:06:14;;;;;;;1157.50;484.60;;;10.40;99.90;;;;;;5072950;28;20075;-84
2023/01/01 16:09:05;;;;;;;1180.93;528.87;;;10.40;99.90;;;;;;5035431;28;20512;-88
2023/01/01 16:11:41;;;;;;;1181.63;528.57;;;10.30;99.90;;;;;;5033583;28;20051;-86
2023/01/01 16:14:35;;;;;;;1185.83;525.53;;;10.40;99.90;;;;;;5052039;28;20045;-87
2023/01/01 16:17:18;;;;;;;1158.27;488.00;;;10.40;99.90;;;;;;5052385;28;20053;-86
2023/01/01 16:19:48;;;;;;;1152.07;480.80;;;10.30;99.90;;;;;;5053134;28;20041;-87
2023/01/01 16:22:17;;;;;;;1162.70;491.23;;;10.20;99.90;;;;;;5052331;28;20053;-87
2023/01/01 16:24:45;;;;;;;1177.40;528.57;;;10.30;99.90;;;;;;5035497;28;20055;-87
2023/01/01 16:27:12;;;;;;;1155.67;479.43;;;10.20;99.90;;;;;;5052995;28;20052;-87
2023/01/01 16:29:44;;;;;;;1177.37;524.20;;;10.10;99.90;;;;;;5035041;28;20041;-88
2023/01/01 16:32:19;;;;;;;1156.40;478.93;;;10.10;99.90;;;;;;5035069;28;20047;-87
2023/01/01 16:34:45;;;;;;;1175.33;522.23;;;10.00;99.90;;;;;;5034918;28;20045;-87
2023/01/01 16:37:12;;;;;;;1176.97;525.50;;;10.00;99.90;;;;;;5034094;28;20563;-87
2023/01/01 16:39:41;;;;;;;1155.47;478.43;;;10.00;99.90;;;;;;5035320;28;20064;-87
2023/01/01 16:42:13;;;;;;;1150.80;475.03;;;10.10;99.90;;;;;;5020119;28;20139;-86
2023/01/01 16:44:47;;;;;;;1178.03;527.60;;;10.00;99.90;;;;;;5053268;28;20037;-87
2023/01/01 16:47:23;;;;;;;1177.70;525.20;;;9.90;99.90;;;;;;5018775;28;20133;-86
2023/01/01 16:50:02;;;;;;;1171.60;527.67;;;10.00;99.90;;;;;;5052332;28;20044;-87
2023/01/01 16:52:46;;;;;;;;;;;10.00;99.90;;;;;;5019075;28;20106;-90
2023/01/01 16:55:20;;;;;;;1139.50;478.10;;;10.80;99.90;;;;;;4945438;28;20024;-87
2023/01/01 17:09:52;;;;;;;1171.57;524.63;;;9.80;99.90;;;;;;5097344;28;20094;-87
2023/01/01 17:25:36;;;;;;;;;;;;;;;;;;;;;
2023/01/01 17:44:10;;;;;;;1156.07;474.10;;;9.70;99.90;;;;;;4995034;28;20045;-88
2023/01/01 17:54:55;;;;;;;1159.30;472.23;;;9.70;99.90;;;;;;4994538;28;20069;-88
2023/01/01 18:05:53;;;;;;;1235.83;551.83;;;9.70;99.90;;;;;;4954338;29;20095;-88
2023/01/01 18:13:02;;;;;;;1168.73;467.23;;;9.70;99.90;;;;;;4917456;29;20060;-89
2023/01/01 18:16:46;;;;;;;;;;;;;;;;;;;;;